Sovereign — 9HUE9 — position and weather

sailwx.info

Track history (hours):
 
Tides and Currents Weather Stations Pressure Air Temp Water Temp Dewpoint Dewpoint Depression Visibility Wind Speed Wind Dir Waves Ship Positions

Sovereign

Last reported at 2014-Jul-27 16:33 UTC. Time now 2014-Aug-01 05:45 UTC.
Position N 38°19' E 015°30'.

Length 268 m; draft 7.8 m.

Type: Passenger vessel. MMSI: 249539000.

Date/timePositionNaut miles runAvg speedWind from/ knotsBaromVisibWave heightAir tempDewpointWater temp
2014-Jul-27 16:33N 38°19' E 015°30'6017.2
2014-Jul-27 13:04N 38°13' E 014°14'917.4
2014-Jul-27 12:33N 38°12' E 014°03'1717.2
2014-Jul-27 11:33N 38°10' E 013°41'1514.9
2014-Jul-27 10:33N 38°08' E 013°22'0 0.3
2014-Jul-27 09:31N 38°08' E 013°22'0 0.0
2014-Jul-27 08:28N 38°08' E 013°22'0 0.0
2014-Jul-27 07:31N 38°08' E 013°22'0 0.0
2014-Jul-27 06:31N 38°08' E 013°22'0 0.0
2014-Jul-27 05:31N 38°08' E 013°22'0 0.0
2014-Jul-27 04:31N 38°08' E 013°22'1 1.1
2014-Jul-27 03:33N 38°07' E 013°23'10 9.7
2014-Jul-27 02:33N 38°17' E 013°23'1413.6
2014-Jul-27 01:33N 38°19' E 013°06'1514.3
2014-Jul-27 00:29N 38°21' E 012°46'13815.4
2014-Jul-26 15:33N 38°33' E 009°51'1817.6
2014-Jul-26 14:33N 38°34' E 009°28'1717.4
2014-Jul-26 13:32N 38°36' E 009°06'1717.4
2014-Jul-26 12:33N 38°38' E 008°44'1817.4
2014-Jul-26 11:32N 38°42' E 008°22'1717.8
2014-Jul-26 10:33N 38°49' E 008°02'5917.0
2014-Jul-26 07:04N 39°18' E 006°55'3316.9
2014-Jul-26 05:08N 39°33' E 006°17'3317.0
2014-Jul-26 03:10N 39°49' E 005°39'1420.1
2014-Jul-26 02:30N 39°56' E 005°24'2016.0
2014-Jul-26 01:14N 40°06' E 005°01'1217.1
2014-Jul-26 00:33N 40°11' E 004°47'2117.0
2014-Jul-25 23:19N 40°21' E 004°23'1316.8
2014-Jul-25 22:33N 40°27' E 004°08'2317.1
2014-Jul-25 21:14N 40°38' E 003°42'1217.3
2014-Jul-25 20:33N 40°44' E 003°28'1717.2
2014-Jul-25 19:33N 40°52' E 003°09'1717.0
2014-Jul-25 18:33N 40°59' E 002°48'1716.7
2014-Jul-25 17:33N 41°08' E 002°29'1914.3
2014-Jul-25 16:14N 41°20' E 002°10'2 0.9
2014-Jul-25 14:28N 41°22' E 002°11'0 0.0
2014-Jul-25 13:34N 41°22' E 002°11'0 0.0
2014-Jul-25 12:04N 41°22' E 002°11'0 0.0
2014-Jul-25 11:33N 41°22' E 002°11'0 0.0
2014-Jul-25 10:15N 41°22' E 002°11'0 0.0
2014-Jul-25 09:33N 41°22' E 002°11'0 0.0
2014-Jul-25 08:15N 41°22' E 002°11'0 0.0
2014-Jul-25 07:24N 41°22' E 002°11'2 2.8
2014-Jul-25 06:33N 41°19' E 002°10'1211.6
2014-Jul-25 05:33N 41°18' E 002°25'1817.5
2014-Jul-25 04:33N 41°20' E 002°49'1817.9
2014-Jul-25 03:33N 41°22' E 003°13'1817.7
2014-Jul-25 02:32N 41°23' E 003°36'1716.9
2014-Jul-25 01:32N 41°25' E 003°59'1717.1
2014-Jul-25 00:33N 41°27' E 004°21'1716.9
2014-Jul-24 23:32N 41°29' E 004°44'1717.1
2014-Jul-24 22:33N 41°30' E 005°06'2017.2
2014-Jul-24 21:24N 41°33' E 005°32'1518.0
2014-Jul-24 20:33N 41°35' E 005°53'1716.6
2014-Jul-24 19:33N 41°37' E 006°15'1717.4
2014-Jul-24 18:33N 41°38' E 006°38'1817.3
2014-Jul-24 17:32N 41°40' E 007°01'1717.2
2014-Jul-24 16:33N 41°41' E 007°24'182 9.6
2014-Jul-23 21:31N 40°30' E 011°06'  
2014-Jul-21 17:18N 35°45' E 023°32'37 2.5
2014-Jul-21 02:30N 35°32' E 024°14'1313.6
2014-Jul-21 01:33N 35°42' E 024°25'1514.9
2014-Jul-21 00:33N 35°53' E 024°37'1514.6
2014-Jul-20 23:33N 36°04' E 024°49'1413.8
2014-Jul-20 22:30N 36°15' E 025°01'1414.6
2014-Jul-20 21:33N 36°25' E 025°12'1616.0
2014-Jul-20 20:33N 36°37' E 025°27'1716.4
2014-Jul-20 19:32N 36°48' E 025°42'1616.3
2014-Jul-20 18:32N 37°01' E 025°53'1616.1
2014-Jul-20 17:33N 37°14' E 026°05'1716.2
2014-Jul-20 16:31N 37°28' E 026°17'25 1.8
2014-Jul-20 02:31N 37°53' E 026°12'3115.8
2014-Jul-20 00:33N 37°41' E 025°35'1616.0
2014-Jul-19 23:32N 37°32' E 025°18'1615.6
2014-Jul-19 22:32N 37°32' E 024°58'1716.8
2014-Jul-19 21:31N 37°32' E 024°37'53 6.6
2014-Jul-19 13:32N 37°56' E 023°38'0 0.0
2014-Jul-19 12:32N 37°56' E 023°38'0 0.0
2014-Jul-19 11:32N 37°56' E 023°38'0 0.0
2014-Jul-19 10:32N 37°56' E 023°38'0 0.0
2014-Jul-19 09:32N 37°56' E 023°38'1 1.0
2014-Jul-19 08:33N 37°56' E 023°37'1515.0
2014-Jul-19 07:33N 37°42' E 023°44'1717.2
2014-Jul-19 06:33N 37°25' E 023°43'1717.4
2014-Jul-19 05:32N 37°08' E 023°39'1716.7
2014-Jul-19 04:33N 36°52' E 023°35'2116.4
2014-Jul-19 03:16N 36°34' E 023°21'1415.4
2014-Jul-19 02:20N 36°23' E 023°10'  
Track history (hours):
 
Tides and Currents Weather Stations Pressure Air Temp Water Temp Dewpoint Dewpoint Depression Visibility Wind Speed Wind Dir Waves Ship Positions

Sovereign

Last reported at 2014-Jul-27 16:33 UTC. Time now 2014-Aug-01 05:45 UTC.
Position N 38°19' E 015°30'.

Length 268 m; draft 7.8 m.

Type: Passenger vessel. MMSI: 249539000.

Date/timePositionNaut miles runAvg speedWind from/ knotsBaromVisibWave heightAir tempDewpointWater temp
2014-Jul-27 16:33N 38°19' E 015°30'6017.2
2014-Jul-27 13:04N 38°13' E 014°14'917.4
2014-Jul-27 12:33N 38°12' E 014°03'1717.2
2014-Jul-27 11:33N 38°10' E 013°41'1514.9
2014-Jul-27 10:33N 38°08' E 013°22'0 0.3
2014-Jul-27 09:31N 38°08' E 013°22'0 0.0
2014-Jul-27 08:28N 38°08' E 013°22'0 0.0
2014-Jul-27 07:31N 38°08' E 013°22'0 0.0
2014-Jul-27 06:31N 38°08' E 013°22'0 0.0
2014-Jul-27 05:31N 38°08' E 013°22'0 0.0
2014-Jul-27 04:31N 38°08' E 013°22'1 1.1
2014-Jul-27 03:33N 38°07' E 013°23'10 9.7
2014-Jul-27 02:33N 38°17' E 013°23'1413.6
2014-Jul-27 01:33N 38°19' E 013°06'1514.3
2014-Jul-27 00:29N 38°21' E 012°46'13815.4
2014-Jul-26 15:33N 38°33' E 009°51'1817.6
2014-Jul-26 14:33N 38°34' E 009°28'1717.4
2014-Jul-26 13:32N 38°36' E 009°06'1717.4
2014-Jul-26 12:33N 38°38' E 008°44'1817.4
2014-Jul-26 11:32N 38°42' E 008°22'1717.8
2014-Jul-26 10:33N 38°49' E 008°02'5917.0
2014-Jul-26 07:04N 39°18' E 006°55'3316.9
2014-Jul-26 05:08N 39°33' E 006°17'3317.0
2014-Jul-26 03:10N 39°49' E 005°39'1420.1
2014-Jul-26 02:30N 39°56' E 005°24'2016.0
2014-Jul-26 01:14N 40°06' E 005°01'1217.1
2014-Jul-26 00:33N 40°11' E 004°47'2117.0
2014-Jul-25 23:19N 40°21' E 004°23'1316.8
2014-Jul-25 22:33N 40°27' E 004°08'2317.1
2014-Jul-25 21:14N 40°38' E 003°42'1217.3
2014-Jul-25 20:33N 40°44' E 003°28'1717.2
2014-Jul-25 19:33N 40°52' E 003°09'1717.0
2014-Jul-25 18:33N 40°59' E 002°48'1716.7
2014-Jul-25 17:33N 41°08' E 002°29'1914.3
2014-Jul-25 16:14N 41°20' E 002°10'2 0.9
2014-Jul-25 14:28N 41°22' E 002°11'0 0.0
2014-Jul-25 13:34N 41°22' E 002°11'0 0.0
2014-Jul-25 12:04N 41°22' E 002°11'0 0.0
2014-Jul-25 11:33N 41°22' E 002°11'0 0.0
2014-Jul-25 10:15N 41°22' E 002°11'0 0.0
2014-Jul-25 09:33N 41°22' E 002°11'0 0.0
2014-Jul-25 08:15N 41°22' E 002°11'0 0.0
2014-Jul-25 07:24N 41°22' E 002°11'2 2.8
2014-Jul-25 06:33N 41°19' E 002°10'1211.6
2014-Jul-25 05:33N 41°18' E 002°25'1817.5
2014-Jul-25 04:33N 41°20' E 002°49'1817.9
2014-Jul-25 03:33N 41°22' E 003°13'1817.7
2014-Jul-25 02:32N 41°23' E 003°36'1716.9
2014-Jul-25 01:32N 41°25' E 003°59'1717.1
2014-Jul-25 00:33N 41°27' E 004°21'1716.9
2014-Jul-24 23:32N 41°29' E 004°44'1717.1
2014-Jul-24 22:33N 41°30' E 005°06'2017.2
2014-Jul-24 21:24N 41°33' E 005°32'1518.0
2014-Jul-24 20:33N 41°35' E 005°53'1716.6
2014-Jul-24 19:33N 41°37' E 006°15'1717.4
2014-Jul-24 18:33N 41°38' E 006°38'1817.3
2014-Jul-24 17:32N 41°40' E 007°01'1717.2
2014-Jul-24 16:33N 41°41' E 007°24'182 9.6
2014-Jul-23 21:31N 40°30' E 011°06'  
2014-Jul-21 17:18N 35°45' E 023°32'37 2.5
2014-Jul-21 02:30N 35°32' E 024°14'1313.6
2014-Jul-21 01:33N 35°42' E 024°25'1514.9
2014-Jul-21 00:33N 35°53' E 024°37'1514.6
2014-Jul-20 23:33N 36°04' E 024°49'1413.8
2014-Jul-20 22:30N 36°15' E 025°01'1414.6
2014-Jul-20 21:33N 36°25' E 025°12'1616.0
2014-Jul-20 20:33N 36°37' E 025°27'1716.4
2014-Jul-20 19:32N 36°48' E 025°42'1616.3
2014-Jul-20 18:32N 37°01' E 025°53'1616.1
2014-Jul-20 17:33N 37°14' E 026°05'1716.2
2014-Jul-20 16:31N 37°28' E 026°17'25 1.8
2014-Jul-20 02:31N 37°53' E 026°12'3115.8
2014-Jul-20 00:33N 37°41' E 025°35'1616.0
2014-Jul-19 23:32N 37°32' E 025°18'1615.6
2014-Jul-19 22:32N 37°32' E 024°58'1716.8
2014-Jul-19 21:31N 37°32' E 024°37'53 6.6
2014-Jul-19 13:32N 37°56' E 023°38'0 0.0
2014-Jul-19 12:32N 37°56' E 023°38'0 0.0
2014-Jul-19 11:32N 37°56' E 023°38'0 0.0
2014-Jul-19 10:32N 37°56' E 023°38'0 0.0
2014-Jul-19 09:32N 37°56' E 023°38'1 1.0
2014-Jul-19 08:33N 37°56' E 023°37'1515.0
2014-Jul-19 07:33N 37°42' E 023°44'1717.2
2014-Jul-19 06:33N 37°25' E 023°43'1717.4
2014-Jul-19 05:32N 37°08' E 023°39'1716.7
2014-Jul-19 04:33N 36°52' E 023°35'2116.4
2014-Jul-19 03:16N 36°34' E 023°21'1415.4
2014-Jul-19 02:20N 36°23' E 023°10'  

Dump ship's entire track history